WetterOnline ( http://www.wetteronline.de )

Wetter aktuell Bremerhaven

Aktuelles Wetter: Bremerhaven (11m)

6-stündlich | Neueste Meldungen
Ortszeit Temperatur Wetter
Di, 23.05. 20:00 13.4° C bewölkt
Di, 23.05. 14:00 18.2° C wolkig
Di, 23.05. 8:00 16.6° C bedeckt
Di, 23.05. 2:00 15.3° C bedeckt
Ortszeit Temperatur Wetter
Mi, 24.05. 0:00 11.7° C wolkig
Di, 23.05. 23:30 12.0° C bewölkt
Di, 23.05. 23:00 12.3° C bewölkt
Di, 23.05. 22:30 12.5° C bewölkt
Di, 23.05. 22:00 12.5° C bedeckt
Di, 23.05. 21:30 12.9° C bewölkt
Ortszeit Relative Feuchte Sichtweite
Di, 23.05. 20:00 84% 10 km
Di, 23.05. 14:00 70% 10 km
Di, 23.05. 8:00 64% 10 km
Di, 23.05. 2:00 70% 10 km
Ortszeit Relative Feuchte Sichtweite
Mi, 24.05. 0:00 89% 10 km
Di, 23.05. 23:30 86% 9 km
Di, 23.05. 23:00 85% 10 km
Di, 23.05. 22:30 84% 10 km
Di, 23.05. 22:00 84% 10 km
Di, 23.05. 21:30 84% 10 km
Ortszeit Niederschlagsmenge Niederschlagsart
Di, 23.05. 20:00 0,0 l/m2 in 12 Std. -
Di, 23.05. 14:00 0,0 l/m2 in 6 Std. -
Di, 23.05. 8:00 0,0 l/m2 in 12 Std. -
Di, 23.05. 2:00 0,0 l/m2 in 6 Std. -
Ortszeit Niederschlagsmenge Niederschlagsart
Mi, 24.05. 0:00 0,0 l/m2 in 1 Std. -
Di, 23.05. 23:30 keine Meldung -
Di, 23.05. 23:00 0,0 l/m2 in 1 Std. -
Di, 23.05. 22:30 keine Meldung -
Di, 23.05. 22:00 0,0 l/m2 in 1 Std. -
Di, 23.05. 21:30 keine Meldung -
Ortszeit Stärke Spitze Richtung
km/h Bft. km/h Grad Sektor
Di, 23.05. 20:00 46 6 59 300° NW
Di, 23.05. 14:00 17 3 24 330° NW
Di, 23.05. 8:00 11 2 18 140° SO
Di, 23.05. 2:00 13 3 20 80° O
Ortszeit Stärke Spitze Richtung
km/h Bft. km/h Grad Sektor
Mi, 24.05. 0:00 26 4 44 280° W
Di, 23.05. 23:30 26 4 44 280° W
Di, 23.05. 23:00 35 5 50 300° NW
Di, 23.05. 22:30 37 5 50 300° NW
Di, 23.05. 22:00 37 5 54 300° NW
Di, 23.05. 21:30 43 6 54 300° NW
Ortszeit Untergrenze Bedeckung Gattung
total tief tief mittel hoch
Di, 23.05. 20:00 510 m 7/8 7/8 - - -
Di, 23.05. 14:00 3300 m 5/8 5/8 - - -
Di, 23.05. 8:00 4500 m 8/8 8/8 - - -
Di, 23.05. 2:00 5100 m 8/8 8/8 - - -
Ortszeit Bedeckungsgrad in Achtel und Wolkenuntergrenze
Mi, 24.05. 0:00 5(510m) 6(660m)
Di, 23.05. 23:30 7(480m) 7(660m)
Di, 23.05. 23:00 6(480m) 7(630m)
Di, 23.05. 22:30 7(510m) 7(690m)
Di, 23.05. 22:00 7(540m) 7(660m) 8(810m)
Di, 23.05. 21:30 7(570m) 7(720m)
Ortszeit Luftdruck NN (hPa) Tendenz (hPa in 3 Std.)
Di, 23.05. 20:00 1019 + 2,0
Di, 23.05. 14:00 1015 + 0,5
Di, 23.05. 8:00 1015 - 0,3
Di, 23.05. 2:00 1016 - 1,1
Ortszeit Luftdruck NN (hPa) Tendenz (hPa in 3 Std.)
Mi, 24.05. 0:00 1021 + 1,5
Di, 23.05. 23:30 1021 + 1,5
Di, 23.05. 23:00 1021 + 1,7
Di, 23.05. 22:30 1020 + 1,7
Di, 23.05. 22:00 1020 + 2,0
Di, 23.05. 21:30 1020 + 2,0
Ortszeit Schneehöhe (cm)
Di, 23.05. 20:00 -
Di, 23.05. 14:00 -
Di, 23.05. 8:00 -
Di, 23.05. 2:00 -
Ortszeit Schneehöhe (cm)
Mi, 24.05. 0:00 -
Di, 23.05. 23:30 -
Di, 23.05. 23:00 -
Di, 23.05. 22:30 -
Di, 23.05. 22:00 -
Di, 23.05. 21:30 -
Link zu dieser Seite / Seite empfehlen

Das Wetter in ...